createdAt,value
2023-04-15T00:02:00.134Z,98880.63
2023-04-15T00:04:29.082Z,98877.19
2023-04-15T00:06:57.292Z,98878.06
2023-04-15T00:09:25.365Z,98883.06
2023-04-15T00:11:53.771Z,98869.16
2023-04-15T00:14:22.162Z,98875.19
2023-04-15T00:16:56.297Z,98879.47
2023-04-15T00:19:24.738Z,98868.34
2023-04-15T00:21:52.820Z,98878.72
2023-04-15T00:24:20.918Z,98873.31
2023-04-15T00:26:49.232Z,98877.34
2023-04-15T00:29:17.280Z,98864.19
2023-04-15T00:31:45.859Z,98873.50
2023-04-15T00:34:15.316Z,98872.47
2023-04-15T00:36:43.480Z,98864.59
2023-04-15T00:39:11.537Z,98856.81
2023-04-15T00:41:40.415Z,98862.63
2023-04-15T00:44:08.579Z,98865.94
2023-04-15T00:46:38.472Z,98873.72
2023-04-15T00:49:07.792Z,98870.88
2023-04-15T00:51:37.646Z,98868.06
2023-04-15T00:54:06.899Z,98864.31
2023-04-15T00:56:38.105Z,98859.94
2023-04-15T00:59:07.206Z,98860.94
2023-04-15T01:01:36.551Z,98857.38
2023-04-15T01:04:05.517Z,98851.31
2023-04-15T01:06:33.958Z,98852.34
2023-04-15T01:09:03.841Z,98860.78
2023-04-15T01:11:34.440Z,98854.03
2023-04-15T01:14:02.919Z,98859.09
2023-04-15T01:16:31.208Z,98845.25
2023-04-15T01:18:59.608Z,98850.31
2023-04-15T01:21:28.206Z,98846.88
2023-04-15T01:23:58.553Z,98847.81
2023-04-15T01:26:28.349Z,98854.38
2023-04-15T01:28:56.528Z,98848.41
2023-04-15T01:31:24.647Z,98849.84
2023-04-15T01:33:52.940Z,98861.00
2023-04-15T01:36:21.078Z,98852.06
2023-04-15T01:38:49.477Z,98853.91
2023-04-15T01:41:17.584Z,98855.44
2023-04-15T01:43:50.421Z,98858.97
2023-04-15T01:46:18.673Z,98860.59
2023-04-15T01:48:46.793Z,98858.81
2023-04-15T01:51:15.107Z,98857.56
2023-04-15T01:53:43.876Z,98860.25
2023-04-15T01:56:12.021Z,98859.31
2023-04-15T01:58:40.517Z,98860.16
2023-04-15T02:01:10.635Z,98860.84
2023-04-15T02:03:39.777Z,98864.75
2023-04-15T02:06:08.015Z,98861.38
2023-04-15T02:08:36.065Z,98860.34
2023-04-15T02:11:04.232Z,98858.88
2023-04-15T02:13:32.260Z,98867.91
2023-04-15T02:16:00.653Z,98870.25
2023-04-15T02:18:30.146Z,98866.88
2023-04-15T02:20:58.913Z,98873.88
2023-04-15T02:23:27.171Z,98863.34
2023-04-15T02:25:55.193Z,98855.31
2023-04-15T02:28:23.350Z,98870.25
2023-04-15T02:30:53.095Z,98875.66
2023-04-15T02:33:22.578Z,98870.41
2023-04-15T02:35:53.385Z,98854.47
2023-04-15T02:38:21.430Z,98881.47
2023-04-15T02:40:51.127Z,98880.31
2023-04-15T02:43:19.197Z,98874.25
2023-04-15T02:45:48.457Z,98863.94
2023-04-15T02:48:19.123Z,98874.31
2023-04-15T02:50:48.140Z,98866.31
2023-04-15T02:53:17.752Z,98874.84
2023-04-15T02:55:46.293Z,98871.38
2023-04-15T02:58:14.637Z,98856.69
2023-04-15T03:00:42.655Z,98861.75
2023-04-15T03:03:11.008Z,98860.22
2023-04-15T03:05:40.176Z,98877.47
2023-04-15T03:08:08.475Z,98867.00
2023-04-15T03:10:37.969Z,98872.06
2023-04-15T03:13:06.041Z,98865.66
2023-04-15T03:15:34.647Z,98868.50
2023-04-15T03:18:02.790Z,98869.44
2023-04-15T03:20:31.004Z,98866.66
2023-04-15T03:22:59.136Z,98859.81
2023-04-15T03:25:27.221Z,98865.13
2023-04-15T03:27:57.035Z,98859.72
2023-04-15T03:30:25.210Z,98860.72
2023-04-15T03:32:53.490Z,98869.50
2023-04-15T03:35:21.549Z,98864.22
2023-04-15T03:37:49.637Z,98861.59
2023-04-15T03:40:17.706Z,98862.44
2023-04-15T03:42:45.708Z,98865.91
2023-04-15T03:45:15.230Z,98867.56
2023-04-15T03:47:43.377Z,98862.34
2023-04-15T03:50:11.886Z,98865.97
2023-04-15T03:52:40.087Z,98863.44
2023-04-15T03:55:08.610Z,98859.88
2023-04-15T03:57:39.186Z,98854.06
2023-04-15T04:00:10.220Z,98857.53
2023-04-15T04:02:39.934Z,98854.06
2023-04-15T04:05:08.726Z,98856.78
2023-04-15T04:07:37.132Z,98868.09
2023-04-15T04:10:05.768Z,98865.38
2023-04-15T04:12:34.323Z,98858.06
2023-04-15T04:15:03.317Z,98864.13
2023-04-15T04:17:31.598Z,98854.66
2023-04-15T04:20:01.123Z,98859.72
2023-04-15T04:22:29.293Z,98863.63
2023-04-15T04:24:59.586Z,98861.16
2023-04-15T04:27:27.872Z,98865.22
2023-04-15T04:29:56.227Z,98859.22
2023-04-15T04:32:24.468Z,98863.47
2023-04-15T04:34:52.766Z,98870.13
2023-04-15T04:37:23.486Z,98857.56
2023-04-15T04:39:51.678Z,98863.84
2023-04-15T04:42:19.762Z,98858.53
2023-04-15T04:44:47.913Z,98856.91
2023-04-15T04:47:16.160Z,98859.72
2023-04-15T04:49:44.268Z,98869.81
2023-04-15T04:52:12.448Z,98868.50
2023-04-15T04:54:41.950Z,98864.94
2023-04-15T04:57:12.707Z,98866.78
2023-04-15T04:59:41.018Z,98866.53
2023-04-15T05:02:09.161Z,98864.09
2023-04-15T05:04:38.428Z,98867.75
2023-04-15T05:07:06.522Z,98864.41
2023-04-15T05:09:36.236Z,98859.75
2023-04-15T05:12:06.013Z,98863.75
2023-04-15T05:14:34.129Z,98865.72
2023-04-15T05:17:02.211Z,98867.78
2023-04-15T05:19:30.584Z,98869.09
2023-04-15T05:22:00.019Z,98872.09
2023-04-15T05:24:28.404Z,98868.78
2023-04-15T05:26:56.934Z,98873.22
2023-04-15T05:29:26.417Z,98865.88
2023-04-15T05:31:54.482Z,98868.63
2023-04-15T05:34:22.632Z,98866.66
2023-04-15T05:36:50.695Z,98879.28
2023-04-15T05:39:18.813Z,98881.25
2023-04-15T05:41:46.955Z,98874.50
2023-04-15T05:44:15.041Z,98883.47
2023-04-15T05:46:44.629Z,98890.28
2023-04-15T05:49:12.703Z,98884.53
2023-04-15T05:51:41.121Z,98886.56
2023-04-15T05:54:09.370Z,98886.69
2023-04-15T05:56:37.554Z,98884.69
2023-04-15T05:59:05.717Z,98889.59
2023-04-15T06:01:35.042Z,98892.59
2023-04-15T06:04:04.662Z,98893.31
2023-04-15T06:06:32.849Z,98893.50
2023-04-15T06:09:01.231Z,98901.56
2023-04-15T06:11:29.504Z,98901.81
2023-04-15T06:13:57.799Z,98901.56
2023-04-15T06:16:26.338Z,98906.50
2023-04-15T06:18:54.528Z,98895.88
2023-04-15T06:21:24.134Z,98901.41
2023-04-15T06:23:52.149Z,98895.66
2023-04-15T06:26:20.250Z,98908.63
2023-04-15T06:28:48.515Z,98904.97
2023-04-15T06:31:16.749Z,98907.16
2023-04-15T06:33:44.902Z,98908.00
2023-04-15T06:36:12.936Z,98900.94
2023-04-15T06:38:44.885Z,98912.97
2023-04-15T06:41:13.051Z,98915.72
2023-04-15T06:43:41.270Z,98919.81
2023-04-15T06:46:09.447Z,98910.34
2023-04-15T06:48:37.610Z,98917.88
2023-04-15T06:51:06.263Z,98913.44
2023-04-15T06:53:35.694Z,98906.91
2023-04-15T06:56:05.182Z,98899.84
2023-04-15T06:58:33.313Z,98912.66
2023-04-15T07:01:01.466Z,98926.38
2023-04-15T07:03:32.669Z,98916.28
2023-04-15T07:06:01.850Z,98916.03
2023-04-15T07:08:29.974Z,98918.59
2023-04-15T07:10:58.176Z,98919.50
2023-04-15T07:13:27.661Z,98925.69
2023-04-15T07:15:56.107Z,98924.16
2023-04-15T07:18:24.185Z,98929.38
2023-04-15T07:20:53.799Z,98926.53
2023-04-15T07:23:21.857Z,98931.72
2023-04-15T07:25:50.746Z,98935.38
2023-04-15T07:28:18.879Z,98936.75
2023-04-15T07:30:48.484Z,98937.34
2023-04-15T07:33:16.634Z,98930.41
2023-04-15T07:35:45.262Z,98921.59
2023-04-15T07:38:13.821Z,98933.75
2023-04-15T07:40:42.600Z,98919.44
2023-04-15T07:43:11.008Z,98930.78
2023-04-15T07:45:39.157Z,98934.66
2023-04-15T07:48:09.599Z,98923.88
2023-04-15T07:50:39.544Z,98933.31
2023-04-15T07:53:09.546Z,98932.53
2023-04-15T07:55:38.041Z,98923.16
2023-04-15T07:58:08.430Z,98923.44
2023-04-15T08:00:37.750Z,98923.19
2023-04-15T08:03:07.009Z,98933.25
2023-04-15T08:05:36.805Z,98926.81
2023-04-15T08:08:05.532Z,98929.13
2023-04-15T08:10:33.740Z,98930.59
2023-04-15T08:13:01.876Z,98931.31
2023-04-15T08:15:30.038Z,98930.50
2023-04-15T08:17:59.368Z,98930.97
2023-04-15T08:20:27.811Z,98939.38
2023-04-15T08:22:57.362Z,98944.47
2023-04-15T08:25:25.901Z,98950.22
2023-04-15T08:27:59.988Z,98952.84
2023-04-15T08:30:28.413Z,98955.66
2023-04-15T08:32:57.667Z,98954.53
2023-04-15T08:35:26.075Z,98957.38
2023-04-15T08:37:54.205Z,98957.38
2023-04-15T08:40:34.243Z,98953.06
2023-04-15T08:43:04.987Z,98960.16
2023-04-15T08:45:40.188Z,98959.88
2023-04-15T08:48:11.529Z,98957.94
2023-04-15T08:50:39.898Z,98963.59
2023-04-15T08:53:08.364Z,98966.91
2023-04-15T08:55:41.227Z,98955.88
2023-04-15T08:58:09.857Z,98955.66
2023-04-15T09:00:38.407Z,98959.47
2023-04-15T09:03:06.914Z,98967.88
2023-04-15T09:05:35.666Z,98973.63
2023-04-15T09:08:06.834Z,98963.34
2023-04-15T09:10:39.328Z,98968.88
2023-04-15T09:13:07.907Z,98965.47
2023-04-15T09:15:39.993Z,98956.84
2023-04-15T09:18:08.303Z,98968.16
2023-04-15T09:20:41.722Z,98980.13
2023-04-15T09:23:17.749Z,98972.97
2023-04-15T09:25:50.727Z,98972.41
2023-04-15T09:28:26.554Z,98969.84
2023-04-15T09:30:58.076Z,98975.06
2023-04-15T09:33:27.550Z,98966.91
2023-04-15T09:36:00.204Z,98959.13
2023-04-15T09:38:28.430Z,98970.22
2023-04-15T09:40:58.704Z,98957.03
2023-04-15T09:43:39.431Z,98969.22
2023-04-15T09:46:07.707Z,98971.47
2023-04-15T09:48:36.044Z,98972.09
2023-04-15T09:51:04.245Z,98981.72
2023-04-15T09:53:35.558Z,98980.78
2023-04-15T09:56:07.989Z,98983.16
2023-04-15T09:58:38.869Z,98977.25
2023-04-15T10:01:09.377Z,98984.03
2023-04-15T10:03:37.818Z,98969.66
2023-04-15T10:06:06.617Z,98985.75
2023-04-15T10:08:35.950Z,98981.41
2023-04-15T10:11:06.913Z,98993.94
2023-04-15T10:13:37.551Z,98988.88
2023-04-15T10:16:08.402Z,98990.19
2023-04-15T10:18:39.351Z,98994.72
2023-04-15T10:21:10.041Z,98992.22
2023-04-15T10:23:39.454Z,98993.31
2023-04-15T10:26:09.634Z,98996.56
2023-04-15T10:28:37.717Z,98993.75
2023-04-15T10:31:07.431Z,98995.31
2023-04-15T10:33:36.413Z,98995.97
2023-04-15T10:36:04.888Z,99002.63
2023-04-15T10:38:37.837Z,98995.91
2023-04-15T10:41:21.202Z,99000.97
2023-04-15T10:43:53.895Z,99002.06
2023-04-15T10:46:26.765Z,99006.50
2023-04-15T10:48:55.656Z,99005.19
2023-04-15T10:51:32.302Z,99003.50
2023-04-15T10:54:01.896Z,99006.72
2023-04-15T10:56:32.321Z,99013.13
2023-04-15T10:59:02.649Z,99009.66
2023-04-15T11:01:55.241Z,99019.84
2023-04-15T11:04:55.211Z,99020.81
2023-04-15T11:07:37.489Z,99017.13
2023-04-15T11:10:26.479Z,99022.38
2023-04-15T11:12:58.971Z,99013.97
2023-04-15T11:15:30.902Z,99017.22
2023-04-15T11:18:02.490Z,99024.28
2023-04-15T11:20:31.518Z,99016.09
2023-04-15T11:23:14.825Z,99018.44
2023-04-15T11:25:47.159Z,99013.88
2023-04-15T11:28:17.552Z,98996.06
2023-04-15T11:30:45.842Z,99014.91
2023-04-15T11:33:14.303Z,99014.22
2023-04-15T11:35:42.843Z,99016.91
2023-04-15T11:38:12.759Z,99018.47
2023-04-15T11:40:42.464Z,99024.84
2023-04-15T11:43:13.913Z,99018.94
2023-04-15T11:45:53.409Z,99020.22
2023-04-15T11:48:24.843Z,99025.72
2023-04-15T11:50:57.115Z,99021.63
2023-04-15T11:53:27.103Z,99024.56
2023-04-15T11:55:55.712Z,99025.09
2023-04-15T11:58:28.001Z,99029.00
2023-04-15T12:01:00.398Z,99026.53
2023-04-15T12:03:30.600Z,99024.09
2023-04-15T12:06:06.702Z,99029.44
2023-04-15T12:09:05.327Z,99024.50
2023-04-15T12:11:36.702Z,99031.56
2023-04-15T12:14:07.582Z,99027.19
2023-04-15T12:16:47.967Z,99032.03
2023-04-15T12:19:18.315Z,99032.22
2023-04-15T12:21:48.971Z,99025.50
2023-04-15T12:24:17.397Z,99023.91
2023-04-15T12:26:47.395Z,99030.53
2023-04-15T12:29:19.008Z,99036.88
2023-04-15T12:31:52.900Z,99032.72
2023-04-15T12:34:29.591Z,99032.97
2023-04-15T12:36:59.106Z,99037.06
2023-04-15T12:39:30.443Z,99036.66
2023-04-15T12:41:59.478Z,99048.38
2023-04-15T12:44:28.092Z,99041.97
2023-04-15T12:46:58.302Z,99044.44
2023-04-15T12:49:26.918Z,99044.50
2023-04-15T12:51:57.870Z,99037.28
2023-04-15T12:54:26.959Z,99044.97
2023-04-15T12:56:55.640Z,99038.09
2023-04-15T12:59:24.517Z,99043.97
2023-04-15T13:01:53.996Z,99047.59
2023-04-15T13:04:24.432Z,99047.09
2023-04-15T13:06:52.836Z,99054.78
2023-04-15T13:09:21.589Z,99051.38
2023-04-15T13:11:51.342Z,99056.44
2023-04-15T13:14:19.546Z,99048.81
2023-04-15T13:16:47.642Z,99062.16
2023-04-15T13:19:16.111Z,99052.59
2023-04-15T13:21:45.591Z,99046.38
2023-04-15T13:24:13.654Z,99049.97
2023-04-15T13:26:44.790Z,99051.56
2023-04-15T13:29:15.296Z,99046.63
2023-04-15T13:31:43.549Z,99057.91
2023-04-15T13:34:11.749Z,99062.19
2023-04-15T13:36:41.851Z,99057.34
2023-04-15T13:39:11.568Z,99056.84
2023-04-15T13:41:39.919Z,99059.84
2023-04-15T13:44:08.077Z,99063.66
2023-04-15T13:46:36.402Z,99059.94
2023-04-15T13:49:04.649Z,99065.19
2023-04-15T13:51:33.741Z,99068.94
2023-04-15T13:54:02.625Z,99066.78
2023-04-15T13:56:36.337Z,99068.59
2023-04-15T13:59:04.900Z,99065.28
2023-04-15T14:01:33.262Z,99068.78
2023-04-15T14:04:03.442Z,99069.16
2023-04-15T14:06:32.473Z,99076.97
2023-04-15T14:09:00.835Z,99072.13
2023-04-15T14:11:30.421Z,99076.59
2023-04-15T14:14:00.162Z,99079.63
2023-04-15T14:16:28.367Z,99084.25
2023-04-15T14:18:56.512Z,99080.16
2023-04-15T14:21:24.830Z,99087.47
2023-04-15T14:23:53.143Z,99087.69
2023-04-15T14:26:21.661Z,99085.88
2023-04-15T14:28:49.911Z,99088.19
2023-04-15T14:31:20.723Z,99095.81
2023-04-15T14:33:49.049Z,99094.50
2023-04-15T14:36:17.341Z,99099.19
2023-04-15T14:38:48.764Z,99096.25
2023-04-15T14:41:18.918Z,99084.00
2023-04-15T14:43:47.409Z,99095.34
2023-04-15T14:46:16.061Z,99094.38
2023-04-15T14:48:45.886Z,99099.94
2023-04-15T14:51:14.160Z,99106.06
2023-04-15T14:53:42.608Z,99102.94
2023-04-15T14:56:10.882Z,99104.72
2023-04-15T14:58:39.149Z,99106.16
2023-04-15T15:01:07.724Z,99106.28
2023-04-15T15:03:36.603Z,99116.88
2023-04-15T15:06:06.474Z,99106.91
2023-04-15T15:08:34.924Z,99112.34
2023-04-15T15:11:03.366Z,99120.13
2023-04-15T15:13:31.580Z,99117.00
2023-04-15T15:15:59.753Z,99118.69
2023-04-15T15:18:27.879Z,99119.34
2023-04-15T15:20:56.034Z,99121.34
2023-04-15T15:23:26.046Z,99119.88
2023-04-15T15:25:54.104Z,99128.16
2023-04-15T15:28:22.692Z,99128.41
2023-04-15T15:30:50.736Z,99129.22
2023-04-15T15:33:19.215Z,99139.56
2023-04-15T15:35:47.698Z,99136.03
2023-04-15T15:38:16.302Z,99140.69
2023-04-15T15:40:45.809Z,99151.47
2023-04-15T15:43:13.811Z,99157.09
2023-04-15T15:45:42.052Z,99162.72
2023-04-15T15:48:10.775Z,99166.50
2023-04-15T15:50:39.220Z,99170.88
2023-04-15T15:53:07.363Z,99170.56
2023-04-15T15:55:35.477Z,99170.47
2023-04-15T15:58:04.939Z,99172.44
2023-04-15T16:00:33.216Z,99181.19
2023-04-15T16:05:32.374Z,99178.44
2023-04-15T16:08:00.504Z,99176.66
2023-04-15T16:10:28.953Z,99185.72
2023-04-15T16:12:57.101Z,99184.97
2023-04-15T16:15:27.568Z,99177.19
2023-04-15T16:17:55.787Z,99182.66
2023-04-15T16:20:24.302Z,99181.94
2023-04-15T16:22:52.391Z,99172.00
2023-04-15T16:25:20.842Z,99177.00
2023-04-15T16:28:00.856Z,99178.34
2023-04-15T16:30:36.635Z,99180.16
2023-04-15T16:33:05.371Z,99186.97
2023-04-15T16:35:34.634Z,99186.13
2023-04-15T16:38:03.514Z,99183.28
2023-04-15T16:40:32.706Z,99194.06
2023-04-15T16:43:01.204Z,99188.69
2023-04-15T16:45:29.758Z,99203.75
2023-04-15T16:47:59.793Z,99207.44
2023-04-15T16:50:28.366Z,99224.09
2023-04-15T16:52:57.220Z,99229.53
2023-04-15T16:55:27.305Z,99232.50
2023-04-15T16:58:02.562Z,99236.56
2023-04-15T17:00:33.385Z,99233.16
2023-04-15T17:03:03.939Z,99232.72
2023-04-15T17:05:32.422Z,99237.75
2023-04-15T17:08:00.812Z,99234.00
2023-04-15T17:10:29.239Z,99245.00
2023-04-15T17:12:57.705Z,99249.19
2023-04-15T17:15:26.254Z,99240.75
2023-04-15T17:17:55.293Z,99256.91
2023-04-15T17:20:24.912Z,99254.78
2023-04-15T17:22:54.212Z,99257.75
2023-04-15T17:25:23.440Z,99259.28
2023-04-15T17:27:51.502Z,99260.03
2023-04-15T17:30:20.879Z,99264.63
2023-04-15T17:32:49.722Z,99268.38
2023-04-15T17:35:18.377Z,99278.94
2023-04-15T17:37:50.211Z,99271.53
2023-04-15T17:40:18.814Z,99282.59
2023-04-15T17:42:47.616Z,99287.91
2023-04-15T17:45:16.295Z,99285.25
2023-04-15T17:47:45.355Z,99290.59
2023-04-15T17:50:14.251Z,99295.91
2023-04-15T17:52:43.203Z,99293.97
2023-04-15T17:58:02.653Z,99307.22
2023-04-15T18:00:32.065Z,99311.06
2023-04-15T18:03:00.701Z,99306.16
2023-04-15T18:05:30.199Z,99306.31
2023-04-15T18:08:00.598Z,99309.88
2023-04-15T18:10:30.704Z,99310.03
2023-04-15T18:13:01.057Z,99321.38
2023-04-15T18:15:30.547Z,99321.47
2023-04-15T18:17:59.993Z,99321.53
2023-04-15T18:20:29.579Z,99324.25
2023-04-15T18:22:58.103Z,99322.72
2023-04-15T18:25:27.218Z,99333.06
2023-04-15T18:27:58.345Z,99340.13
2023-04-15T18:30:27.370Z,99348.88
2023-04-15T18:32:56.208Z,99347.25
2023-04-15T18:35:25.618Z,99352.66
2023-04-15T18:37:55.237Z,99353.59
2023-04-15T18:40:25.681Z,99354.69
2023-04-15T18:42:55.020Z,99370.56
2023-04-15T18:45:26.787Z,99372.44
2023-04-15T18:47:57.036Z,99373.38
2023-04-15T18:50:26.625Z,99379.72
2023-04-15T18:52:55.174Z,99378.94
2023-04-15T18:55:24.929Z,99374.94
2023-04-15T18:57:54.496Z,99390.88
2023-04-15T19:00:28.200Z,99393.00
2023-04-15T19:02:57.677Z,99396.69
2023-04-15T19:05:27.710Z,99393.47
2023-04-15T19:07:59.699Z,99403.16
2023-04-15T19:10:28.931Z,99409.47
2023-04-15T19:12:58.093Z,99413.13
2023-04-15T19:15:29.422Z,99417.56
2023-04-15T19:17:58.477Z,99417.41
2023-04-15T19:20:27.612Z,99420.13
2023-04-15T19:22:57.212Z,99421.63
2023-04-15T19:25:26.201Z,99433.94
2023-04-15T19:27:55.782Z,99433.94
2023-04-15T19:30:26.558Z,99429.78
2023-04-15T19:32:57.120Z,99441.03
2023-04-15T19:35:28.339Z,99441.81
2023-04-15T19:37:56.922Z,99440.13
2023-04-15T19:40:26.223Z,99439.34
2023-04-15T19:42:55.832Z,99456.75
2023-04-15T19:45:25.580Z,99449.97
2023-04-15T19:48:01.094Z,99453.34
2023-04-15T19:50:29.453Z,99456.91
2023-04-15T19:52:58.330Z,99458.59
2023-04-15T19:55:30.664Z,99460.28
2023-04-15T19:58:00.316Z,99461.09
2023-04-15T20:00:30.120Z,99467.16
2023-04-15T20:03:01.058Z,99463.69
2023-04-15T20:05:31.596Z,99461.13
2023-04-15T20:08:00.729Z,99467.22
2023-04-15T20:10:31.028Z,99464.75
2023-04-15T20:12:59.573Z,99467.38
2023-04-15T20:15:29.238Z,99468.94
2023-04-15T20:17:58.509Z,99469.69
2023-04-15T20:20:30.193Z,99472.03
2023-04-15T20:22:58.542Z,99465.97
2023-04-15T20:25:27.308Z,99469.25
2023-04-15T20:27:58.133Z,99469.19
2023-04-15T20:30:29.521Z,99457.88
2023-04-15T20:32:57.836Z,99470.19
2023-04-15T20:35:31.401Z,99475.50
2023-04-15T20:38:01.424Z,99473.88
2023-04-15T20:40:30.075Z,99466.59
2023-04-15T20:42:58.593Z,99460.00
2023-04-15T20:45:27.507Z,99473.88
2023-04-15T20:47:57.477Z,99465.38
2023-04-15T20:50:25.574Z,99476.34
2023-04-15T20:52:55.386Z,99483.91
2023-04-15T20:55:23.831Z,99483.06
2023-04-15T20:57:54.148Z,99475.28
2023-04-15T21:00:22.391Z,99480.22
2023-04-15T21:02:51.386Z,99485.47
2023-04-15T21:05:20.216Z,99496.88
2023-04-15T21:07:49.129Z,99499.50
2023-04-15T21:10:19.040Z,99495.19
2023-04-15T21:12:47.568Z,99494.47
2023-04-15T21:15:15.769Z,99504.03
2023-04-15T21:17:43.893Z,99509.41
2023-04-15T21:20:13.458Z,99514.88
2023-04-15T21:22:41.707Z,99523.03
2023-04-15T21:25:10.808Z,99525.00
2023-04-15T21:27:40.285Z,99520.16
2023-04-15T21:30:09.347Z,99527.78
2023-04-15T21:32:37.583Z,99530.69
2023-04-15T21:35:06.652Z,99532.47
2023-04-15T21:37:34.804Z,99537.91
2023-04-15T21:40:02.909Z,99532.00
2023-04-15T21:42:31.239Z,99540.94
2023-04-15T21:45:00.713Z,99543.50
2023-04-15T21:47:28.861Z,99537.13
2023-04-15T21:49:57.095Z,99532.59
2023-04-15T21:52:25.219Z,99538.69
2023-04-15T21:54:53.257Z,99537.72
2023-04-15T21:57:21.359Z,99541.19
2023-04-15T21:59:49.477Z,99539.41
2023-04-15T22:02:19.098Z,99546.34
2023-04-15T22:04:47.240Z,99547.03
2023-04-15T22:07:15.701Z,99541.03
2023-04-15T22:09:43.758Z,99541.38
2023-04-15T22:12:11.837Z,99545.63
2023-04-15T22:14:39.847Z,99549.78
2023-04-15T22:17:07.923Z,99545.63
2023-04-15T22:19:37.414Z,99554.53
2023-04-15T22:22:05.509Z,99556.09
2023-04-15T22:24:40.330Z,99562.19
2023-04-15T22:27:08.694Z,99552.56
2023-04-15T22:29:36.733Z,99556.03
2023-04-15T22:32:04.825Z,99559.38
2023-04-15T22:34:32.834Z,99545.63
2023-04-15T22:37:06.796Z,99549.16
2023-04-15T22:39:35.345Z,99558.03
2023-04-15T22:42:03.488Z,99553.41
2023-04-15T22:44:31.566Z,99555.25
2023-04-15T22:46:59.678Z,99561.06
2023-04-15T22:49:27.782Z,99557.53
2023-04-15T22:51:56.050Z,99558.25
2023-04-15T22:54:25.760Z,99563.97
2023-04-15T22:56:53.850Z,99559.66
2023-04-15T22:59:21.939Z,99552.44
2023-04-15T23:01:50.286Z,99550.69
2023-04-15T23:04:26.137Z,99555.16
2023-04-15T23:06:55.083Z,99562.69
2023-04-15T23:09:23.338Z,99560.81
2023-04-15T23:11:52.836Z,99559.03
2023-04-15T23:14:21.018Z,99553.25
2023-04-15T23:16:49.045Z,99560.13
2023-04-15T23:19:17.216Z,99555.59
2023-04-15T23:21:45.712Z,99545.81
2023-04-15T23:24:14.017Z,99563.22
2023-04-15T23:26:42.097Z,99567.63
2023-04-15T23:29:11.938Z,99566.69
2023-04-15T23:31:41.723Z,99565.63
2023-04-15T23:34:10.010Z,99566.66
2023-04-15T23:36:38.251Z,99572.56
2023-04-15T23:39:06.471Z,99572.56
2023-04-15T23:41:34.641Z,99575.34
2023-04-15T23:44:02.800Z,99570.47
2023-04-15T23:46:32.479Z,99572.59
2023-04-15T23:49:00.636Z,99568.28
2023-04-15T23:51:28.738Z,99570.41
2023-04-15T23:53:56.881Z,99578.47
2023-04-15T23:56:25.017Z,99579.59
2023-04-15T23:58:53.068Z,99577.91
